Terminal Aerodrome Forecast
Issued by NWS

Home | Current Version | Previous Version | Text Only | Print | Product List | Glossary Off
Versions: 1 2 3 4 5 6 7 8 9 10

000
FTUS43 KTOP 250500
TAFMHK
TAF
KMHK 250527Z 2506/2606 20008KT P6SM SCT200
     FM251200 20012KT P6SM SKC
     FM251600 19017G29KT P6SM BKN250
     FM260000 19008KT P6SM BKN200=

USA.gov is the U.S. government's official web portal to all federal, state and local government web resources and services.